createdAt,value
2023-08-17T00:01:13.104Z,99238.40
2023-08-17T00:03:39.679Z,99234.60
2023-08-17T00:06:06.566Z,99232.80
2023-08-17T00:08:33.047Z,99237.40
2023-08-17T00:10:59.498Z,99235.20
2023-08-17T00:13:25.907Z,99227.00
2023-08-17T00:15:52.371Z,99226.00
2023-08-17T00:18:18.872Z,99223.40
2023-08-17T00:20:45.551Z,99228.00
2023-08-17T00:23:12.049Z,99227.00
2023-08-17T00:25:38.576Z,99221.40
2023-08-17T00:28:05.661Z,99219.80
2023-08-17T00:30:32.162Z,99216.40
2023-08-17T00:32:58.598Z,99215.40
2023-08-17T00:35:25.008Z,99215.00
2023-08-17T00:37:51.426Z,99213.80
2023-08-17T00:40:17.853Z,99210.20
2023-08-17T00:42:44.296Z,99210.20
2023-08-17T00:45:11.098Z,99202.60
2023-08-17T00:47:38.272Z,99201.80
2023-08-17T00:50:05.608Z,99208.80
2023-08-17T00:52:34.306Z,99206.20
2023-08-17T00:55:03.199Z,99203.00
2023-08-17T00:57:29.656Z,99197.20
2023-08-17T01:00:04.880Z,99202.80
2023-08-17T01:02:28.103Z,99203.60
2023-08-17T01:04:54.722Z,99205.80
2023-08-17T01:07:22.051Z,99214.80
2023-08-17T01:09:48.654Z,99216.80
2023-08-17T01:12:25.628Z,99219.60
2023-08-17T01:15:03.239Z,99230.20
2023-08-17T01:17:45.143Z,99226.80
2023-08-17T01:20:15.057Z,99225.40
2023-08-17T01:22:43.826Z,99224.20
2023-08-17T01:25:10.582Z,99222.20
2023-08-17T01:27:46.056Z,99228.20
2023-08-17T01:30:17.584Z,99229.80
2023-08-17T01:33:03.350Z,99228.40
2023-08-17T01:35:46.940Z,99229.20
2023-08-17T01:38:21.004Z,99229.80
2023-08-17T01:40:50.058Z,99234.00
2023-08-17T01:43:18.057Z,99232.60
2023-08-17T01:45:45.215Z,99233.80
2023-08-17T01:48:11.921Z,99235.20
2023-08-17T01:50:38.444Z,99240.60
2023-08-17T01:53:05.078Z,99241.40
2023-08-17T01:55:31.548Z,99233.40
2023-08-17T01:57:57.980Z,99233.40
2023-08-17T02:00:24.405Z,99229.20
2023-08-17T02:02:50.833Z,99227.60
2023-08-17T02:05:17.266Z,99224.00
2023-08-17T02:07:43.723Z,99224.60
2023-08-17T02:10:10.686Z,99220.80
2023-08-17T02:12:37.093Z,99219.40
2023-08-17T02:15:03.757Z,99219.80
2023-08-17T02:17:30.409Z,99222.40
2023-08-17T02:19:56.821Z,99222.00
2023-08-17T02:22:23.261Z,99225.00
2023-08-17T02:24:49.654Z,99222.60
2023-08-17T02:27:16.112Z,99222.00
2023-08-17T02:29:42.572Z,99222.20
2023-08-17T02:32:09.018Z,99220.60
2023-08-17T02:34:35.431Z,99219.60
2023-08-17T02:39:28.129Z,99218.60
2023-08-17T02:41:54.545Z,99214.40
2023-08-17T02:44:22.089Z,99215.20
2023-08-17T02:46:48.528Z,99213.00
2023-08-17T02:49:14.959Z,99216.40
2023-08-17T02:51:41.448Z,99220.20
2023-08-17T02:54:08.316Z,99218.00
2023-08-17T02:56:34.790Z,99223.60
2023-08-17T02:59:01.215Z,99225.00
2023-08-17T03:01:27.744Z,99228.00
2023-08-17T03:03:54.182Z,99226.20
2023-08-17T03:06:20.591Z,99223.00
2023-08-17T03:08:47.021Z,99221.60
2023-08-17T03:11:13.519Z,99222.80
2023-08-17T03:13:40.309Z,99225.20
2023-08-17T03:16:06.796Z,99226.60
2023-08-17T03:18:33.244Z,99224.60
2023-08-17T03:20:59.682Z,99226.60
2023-08-17T03:23:26.155Z,99229.00
2023-08-17T03:25:55.919Z,99233.20
2023-08-17T03:28:22.522Z,99231.80
2023-08-17T03:30:49.081Z,99233.40
2023-08-17T03:33:15.545Z,99231.60
2023-08-17T03:35:41.994Z,99233.20
2023-08-17T03:38:08.395Z,99241.00
2023-08-17T03:40:34.807Z,99237.80
2023-08-17T03:43:01.238Z,99237.80
2023-08-17T03:45:27.620Z,99236.40
2023-08-17T03:47:54.506Z,99234.80
2023-08-17T03:50:20.928Z,99238.80
2023-08-17T03:52:47.323Z,99242.20
2023-08-17T03:55:13.806Z,99246.80
2023-08-17T03:57:40.296Z,99254.80
2023-08-17T04:00:08.226Z,99258.80
2023-08-17T04:02:34.689Z,99263.60
2023-08-17T04:05:01.224Z,99264.40
2023-08-17T04:07:28.087Z,99268.60
2023-08-17T04:09:54.709Z,99267.80
2023-08-17T04:12:21.161Z,99272.00
2023-08-17T04:14:47.757Z,99273.80
2023-08-17T04:17:14.273Z,99267.00
2023-08-17T04:19:40.802Z,99268.80
2023-08-17T04:22:07.437Z,99279.60
2023-08-17T04:24:33.962Z,99276.80
2023-08-17T04:27:00.945Z,99279.80
2023-08-17T04:29:27.364Z,99280.60
2023-08-17T04:31:54.321Z,99279.20
2023-08-17T04:34:21.165Z,99274.00
2023-08-17T04:36:47.690Z,99273.60
2023-08-17T04:39:14.280Z,99274.00
2023-08-17T04:41:40.810Z,99279.00
2023-08-17T04:44:07.305Z,99276.60
2023-08-17T04:46:34.023Z,99277.00
2023-08-17T04:49:00.493Z,99279.80
2023-08-17T04:51:26.960Z,99285.00
2023-08-17T04:53:54.073Z,99292.60
2023-08-17T04:56:21.776Z,99292.00
2023-08-17T04:58:48.258Z,99290.40
2023-08-17T05:01:15.158Z,99295.40
2023-08-17T05:03:41.829Z,99301.40
2023-08-17T05:06:08.501Z,99300.40
2023-08-17T05:08:34.918Z,99309.20
2023-08-17T05:11:01.322Z,99311.60
2023-08-17T05:13:27.876Z,99311.00
2023-08-17T05:15:54.809Z,99301.40
2023-08-17T05:18:22.404Z,99298.00
2023-08-17T05:20:49.027Z,99291.00
2023-08-17T05:23:15.448Z,99297.60
2023-08-17T05:25:41.840Z,99300.40
2023-08-17T05:28:08.392Z,99293.20
2023-08-17T05:30:34.811Z,99295.80
2023-08-17T05:33:01.283Z,99287.80
2023-08-17T05:35:27.736Z,99291.40
2023-08-17T05:37:54.170Z,99291.80
2023-08-17T05:40:20.615Z,99287.40
2023-08-17T05:42:47.079Z,99280.40
2023-08-17T05:45:13.686Z,99285.60
2023-08-17T05:47:40.149Z,99286.80
2023-08-17T05:50:07.399Z,99275.40
2023-08-17T05:52:33.936Z,99275.80
2023-08-17T05:55:00.514Z,99278.40
2023-08-17T05:57:27.280Z,99273.60
2023-08-17T05:59:54.110Z,99276.80
2023-08-17T06:02:20.542Z,99281.00
2023-08-17T06:04:48.930Z,99288.40
2023-08-17T06:07:15.455Z,99287.40
2023-08-17T06:09:42.108Z,99281.80
2023-08-17T06:12:08.607Z,99285.00
2023-08-17T06:14:35.320Z,99290.00
2023-08-17T06:17:02.001Z,99291.20
2023-08-17T06:19:28.417Z,99287.60
2023-08-17T06:21:54.925Z,99285.60
2023-08-17T06:24:21.662Z,99288.00
2023-08-17T06:26:48.134Z,99291.00
2023-08-17T06:29:14.531Z,99290.20
2023-08-17T06:31:40.976Z,99292.60
2023-08-17T06:34:07.454Z,99285.00
2023-08-17T06:36:34.219Z,99280.60
2023-08-17T06:39:01.333Z,99289.20
2023-08-17T06:41:27.923Z,99294.00
2023-08-17T06:43:54.330Z,99298.20
2023-08-17T06:46:20.884Z,99303.60
2023-08-17T06:48:47.367Z,99303.60
2023-08-17T06:51:13.776Z,99305.20
2023-08-17T06:53:40.425Z,99298.40
2023-08-17T06:56:07.113Z,99293.40
2023-08-17T06:58:33.546Z,99295.00
2023-08-17T07:00:59.967Z,99293.00
2023-08-17T07:03:26.431Z,99293.40
2023-08-17T07:05:52.966Z,99288.00
2023-08-17T07:08:19.419Z,99291.60
2023-08-17T07:10:46.258Z,99292.00
2023-08-17T07:13:12.745Z,99289.00
2023-08-17T07:15:39.187Z,99289.80
2023-08-17T07:18:05.725Z,99292.00
2023-08-17T07:20:32.161Z,99302.60
2023-08-17T07:22:58.982Z,99306.80
2023-08-17T07:25:26.249Z,99312.00
2023-08-17T07:27:52.671Z,99315.40
2023-08-17T07:30:19.133Z,99308.40
2023-08-17T07:32:45.570Z,99310.80
2023-08-17T07:35:12.293Z,99313.60
2023-08-17T07:37:38.804Z,99314.80
2023-08-17T07:40:06.114Z,99316.80
2023-08-17T07:42:32.778Z,99310.80
2023-08-17T07:44:59.300Z,99308.20
2023-08-17T07:47:26.238Z,99306.00
2023-08-17T07:49:53.353Z,99304.60
2023-08-17T07:52:19.874Z,99314.80
2023-08-17T07:54:47.098Z,99323.80
2023-08-17T07:57:13.558Z,99326.20
2023-08-17T07:59:39.971Z,99323.60
2023-08-17T08:02:07.015Z,99326.40
2023-08-17T08:04:33.424Z,99327.40
2023-08-17T08:07:00.100Z,99325.80
2023-08-17T08:09:26.487Z,99327.40
2023-08-17T08:11:52.923Z,99329.80
2023-08-17T08:14:19.397Z,99327.00
2023-08-17T08:16:45.861Z,99326.00
2023-08-17T08:19:12.380Z,99324.40
2023-08-17T08:21:39.180Z,99324.60
2023-08-17T08:24:10.393Z,99323.00
2023-08-17T08:26:40.781Z,99324.40
2023-08-17T08:29:07.213Z,99329.40
2023-08-17T08:31:33.671Z,99329.00
2023-08-17T08:34:00.759Z,99328.60
2023-08-17T08:36:27.174Z,99322.00
2023-08-17T08:38:53.828Z,99325.40
2023-08-17T08:41:20.802Z,99316.40
2023-08-17T08:43:47.980Z,99315.60
2023-08-17T08:46:19.004Z,99320.40
2023-08-17T08:48:51.681Z,99320.60
2023-08-17T08:51:29.076Z,99319.80
2023-08-17T08:54:04.560Z,99318.60
2023-08-17T08:56:39.095Z,99326.00
2023-08-17T08:59:05.848Z,99325.40
2023-08-17T09:01:33.602Z,99327.20
2023-08-17T09:04:01.901Z,99328.00
2023-08-17T09:06:30.304Z,99327.60
2023-08-17T09:08:59.106Z,99326.60
2023-08-17T09:11:25.598Z,99324.20
2023-08-17T09:13:54.433Z,99326.80
2023-08-17T09:16:23.005Z,99326.60
2023-08-17T09:18:55.123Z,99332.20
2023-08-17T09:21:24.472Z,99324.60
2023-08-17T09:26:25.702Z,99323.00
2023-08-17T09:28:55.262Z,99324.20
2023-08-17T09:31:25.368Z,99327.00
2023-08-17T09:33:52.726Z,99326.40
2023-08-17T09:36:23.836Z,99329.60
2023-08-17T09:38:52.472Z,99329.80
2023-08-17T09:41:20.039Z,99330.00
2023-08-17T09:43:48.146Z,99329.80
2023-08-17T09:46:16.158Z,99323.00
2023-08-17T09:48:46.654Z,99326.00
2023-08-17T09:51:17.441Z,99325.40
2023-08-17T09:53:44.055Z,99330.00
2023-08-17T09:58:44.194Z,99324.20
2023-08-17T10:01:12.106Z,99327.80
2023-08-17T10:03:47.250Z,99325.00
2023-08-17T10:06:26.748Z,99324.00
2023-08-17T10:08:55.666Z,99329.40
2023-08-17T10:11:24.315Z,99325.40
2023-08-17T10:16:47.075Z,99332.60
2023-08-17T10:19:44.506Z,99330.80
2023-08-17T10:22:20.978Z,99328.40
2023-08-17T10:24:48.424Z,99330.80
2023-08-17T10:27:14.942Z,99328.20
2023-08-17T10:29:44.340Z,99326.80
2023-08-17T10:32:16.704Z,99326.40
2023-08-17T10:34:44.620Z,99324.80
2023-08-17T10:37:12.851Z,99325.60
2023-08-17T10:39:47.394Z,99323.20
2023-08-17T10:42:20.783Z,99318.80
2023-08-17T10:44:50.422Z,99312.60
2023-08-17T10:47:26.633Z,99310.60
2023-08-17T10:50:02.700Z,99300.80
2023-08-17T10:52:36.426Z,99300.40
2023-08-17T10:55:06.276Z,99297.00
2023-08-17T10:57:38.349Z,99294.40
2023-08-17T11:00:30.783Z,99295.40
2023-08-17T11:03:04.957Z,99296.20
2023-08-17T11:05:54.994Z,99293.80
2023-08-17T11:08:51.439Z,99294.80
2023-08-17T11:11:22.554Z,99294.20
2023-08-17T11:13:50.022Z,99291.80
2023-08-17T11:16:20.611Z,99296.80
2023-08-17T11:18:54.471Z,99295.80
2023-08-17T11:21:21.495Z,99297.40
2023-08-17T11:23:49.595Z,99295.00
2023-08-17T11:26:20.421Z,99290.00
2023-08-17T11:28:48.516Z,99292.80
2023-08-17T11:31:17.008Z,99295.20
2023-08-17T11:33:45.861Z,99297.80
2023-08-17T11:36:12.832Z,99303.00
2023-08-17T11:38:44.776Z,99300.80
2023-08-17T11:43:43.634Z,99298.80
2023-08-17T11:46:10.186Z,99309.00
2023-08-17T11:48:38.048Z,99307.60
2023-08-17T11:51:05.367Z,99306.40
2023-08-17T11:53:42.402Z,99307.60
2023-08-17T11:56:11.303Z,99305.40
2023-08-17T11:58:46.788Z,99297.60
2023-08-17T12:01:19.704Z,99302.00
2023-08-17T12:03:46.986Z,99299.00
2023-08-17T12:06:15.025Z,99303.40
2023-08-17T12:08:49.608Z,99308.40
2023-08-17T12:11:25.027Z,99311.80
2023-08-17T12:13:53.278Z,99313.20
2023-08-17T12:16:23.920Z,99311.40
2023-08-17T12:18:54.308Z,99308.20
2023-08-17T12:21:29.478Z,99311.20
2023-08-17T12:23:56.180Z,99309.80
2023-08-17T12:26:23.155Z,99311.40
2023-08-17T12:28:50.947Z,99316.80
2023-08-17T12:31:23.700Z,99310.80
2023-08-17T12:33:53.463Z,99310.20
2023-08-17T12:36:21.541Z,99314.20
2023-08-17T12:38:49.250Z,99318.60
2023-08-17T12:41:16.048Z,99318.80
2023-08-17T12:43:42.486Z,99322.00
2023-08-17T12:46:08.925Z,99324.00
2023-08-17T12:48:36.864Z,99321.20
2023-08-17T12:53:29.518Z,99313.20
2023-08-17T12:55:56.587Z,99313.60
2023-08-17T12:58:23.369Z,99304.20
2023-08-17T13:00:54.490Z,99299.40
2023-08-17T13:03:21.668Z,99294.80
2023-08-17T13:05:48.230Z,99291.20
2023-08-17T13:08:14.773Z,99291.00
2023-08-17T13:10:41.346Z,99289.00
2023-08-17T13:13:07.874Z,99287.20
2023-08-17T13:15:34.775Z,99288.60
2023-08-17T13:18:02.268Z,99284.20
2023-08-17T13:20:28.828Z,99286.00
2023-08-17T13:22:55.313Z,99283.40
2023-08-17T13:25:21.840Z,99284.00
2023-08-17T13:27:48.281Z,99282.20
2023-08-17T13:30:14.849Z,99276.80
2023-08-17T13:32:44.028Z,99272.00
2023-08-17T13:35:11.518Z,99272.00
2023-08-17T13:37:38.927Z,99267.60
2023-08-17T13:40:06.267Z,99268.80
2023-08-17T13:42:36.472Z,99270.20
2023-08-17T13:45:05.424Z,99272.40
2023-08-17T13:47:31.880Z,99275.00
2023-08-17T13:49:59.432Z,99272.40
2023-08-17T13:52:26.511Z,99272.60
2023-08-17T13:54:57.415Z,99270.60
2023-08-17T13:57:23.912Z,99271.20
2023-08-17T13:59:50.425Z,99268.00
2023-08-17T14:02:16.840Z,99269.80
2023-08-17T14:04:43.294Z,99267.20
2023-08-17T14:07:09.708Z,99267.40
2023-08-17T14:09:36.166Z,99270.40
2023-08-17T14:12:03.279Z,99268.60
2023-08-17T14:14:29.776Z,99274.00
2023-08-17T14:16:56.505Z,99276.20
2023-08-17T14:19:23.075Z,99276.60
2023-08-17T14:21:49.728Z,99277.40
2023-08-17T14:24:36.681Z,99273.40
2023-08-17T14:27:03.263Z,99271.20
2023-08-17T14:29:29.708Z,99270.20
2023-08-17T14:31:56.506Z,99269.00
2023-08-17T14:34:23.955Z,99270.00
2023-08-17T14:36:50.447Z,99264.60
2023-08-17T14:39:17.045Z,99263.80
2023-08-17T14:41:46.563Z,99262.80
2023-08-17T14:44:13.230Z,99263.80
2023-08-17T14:46:43.581Z,99260.40
2023-08-17T14:49:10.244Z,99263.00
2023-08-17T14:51:40.064Z,99263.00
2023-08-17T14:54:08.961Z,99257.20
2023-08-17T14:56:35.565Z,99259.00
2023-08-17T14:59:03.003Z,99258.60
2023-08-17T15:01:31.187Z,99257.20
2023-08-17T15:03:57.687Z,99260.80
2023-08-17T15:06:34.234Z,99262.40
2023-08-17T15:11:33.343Z,99263.20
2023-08-17T15:13:59.962Z,99263.40
2023-08-17T15:16:28.306Z,99256.20
2023-08-17T15:18:55.633Z,99254.40
2023-08-17T15:21:22.829Z,99255.40
2023-08-17T15:23:49.439Z,99251.20
2023-08-17T15:26:16.004Z,99250.40
2023-08-17T15:28:42.871Z,99248.00
2023-08-17T15:31:14.287Z,99245.40
2023-08-17T15:33:41.728Z,99248.60
2023-08-17T15:36:08.570Z,99252.00
2023-08-17T15:38:35.169Z,99253.60
2023-08-17T15:43:55.577Z,99248.80
2023-08-17T15:46:22.047Z,99246.80
2023-08-17T15:49:06.743Z,99249.40
2023-08-17T15:51:33.150Z,99244.00
2023-08-17T15:53:59.528Z,99243.80
2023-08-17T15:56:25.976Z,99246.40
2023-08-17T15:58:52.561Z,99245.00
2023-08-17T16:01:43.832Z,99243.40
2023-08-17T16:04:10.269Z,99246.00
2023-08-17T16:06:36.830Z,99247.00
2023-08-17T16:11:37.984Z,99254.40
2023-08-17T16:14:06.344Z,99249.00
2023-08-17T16:16:34.014Z,99246.20
2023-08-17T16:19:04.468Z,99250.00
2023-08-17T16:21:55.661Z,99249.80
2023-08-17T16:24:26.533Z,99255.80
2023-08-17T16:26:53.683Z,99257.60
2023-08-17T16:29:44.750Z,99257.80
2023-08-17T16:32:11.280Z,99254.80
2023-08-17T16:34:37.769Z,99250.00
2023-08-17T16:39:56.027Z,99257.60
2023-08-17T16:42:22.490Z,99261.40
2023-08-17T16:44:48.883Z,99265.60
2023-08-17T16:47:19.784Z,99265.00
2023-08-17T16:49:56.566Z,99267.20
2023-08-17T16:52:23.877Z,99265.80
2023-08-17T16:54:50.291Z,99268.20
2023-08-17T16:57:16.773Z,99267.20
2023-08-17T17:02:30.329Z,99272.40
2023-08-17T17:04:56.788Z,99275.60
2023-08-17T17:07:23.256Z,99276.60
2023-08-17T17:09:50.234Z,99279.40
2023-08-17T17:12:42.186Z,99281.00
2023-08-17T17:15:09.325Z,99277.60
2023-08-17T17:17:36.101Z,99280.00
2023-08-17T17:23:03.832Z,99270.20
2023-08-17T17:25:30.321Z,99270.20
2023-08-17T17:28:38.004Z,99267.40
2023-08-17T17:31:07.406Z,99268.20
2023-08-17T17:33:58.844Z,99266.80
2023-08-17T17:36:25.504Z,99273.80
2023-08-17T17:38:52.016Z,99276.60
2023-08-17T17:41:18.500Z,99279.60
2023-08-17T17:43:44.980Z,99283.40
2023-08-17T17:46:11.438Z,99281.80
2023-08-17T17:48:37.930Z,99282.80
2023-08-17T17:53:31.585Z,99275.80
2023-08-17T17:55:58.179Z,99273.40
2023-08-17T17:58:24.727Z,99267.60
2023-08-17T18:00:51.305Z,99260.60
2023-08-17T18:03:17.921Z,99263.20
2023-08-17T18:05:46.561Z,99262.40
2023-08-17T18:08:13.284Z,99263.80
2023-08-17T18:10:44.499Z,99267.60
2023-08-17T18:13:11.070Z,99267.20
2023-08-17T18:15:39.436Z,99269.80
2023-08-17T18:18:07.042Z,99269.20
2023-08-17T18:20:34.164Z,99267.00
2023-08-17T18:23:00.667Z,99272.00
2023-08-17T18:25:27.454Z,99265.60
2023-08-17T18:27:53.995Z,99268.20
2023-08-17T18:30:20.437Z,99270.00
2023-08-17T18:32:47.005Z,99261.80
2023-08-17T18:35:13.567Z,99264.20
2023-08-17T18:37:41.765Z,99259.80
2023-08-17T18:40:10.657Z,99255.20
2023-08-17T18:42:37.157Z,99253.00
2023-08-17T18:45:04.041Z,99242.40
2023-08-17T18:47:30.679Z,99237.20
2023-08-17T18:49:57.167Z,99237.80
2023-08-17T18:52:25.121Z,99237.60
2023-08-17T18:55:03.965Z,99243.60
2023-08-17T18:57:33.780Z,99255.80
2023-08-17T19:00:02.117Z,99261.80
2023-08-17T19:02:28.814Z,99264.60
2023-08-17T19:04:55.330Z,99266.20
2023-08-17T19:07:23.462Z,99258.80
2023-08-17T19:09:50.199Z,99260.80
2023-08-17T19:12:18.501Z,99260.20
2023-08-17T19:14:46.556Z,99264.20
2023-08-17T19:17:13.568Z,99259.60
2023-08-17T19:19:41.718Z,99257.80
2023-08-17T19:22:08.644Z,99261.00
2023-08-17T19:24:35.352Z,99261.20
2023-08-17T19:27:01.956Z,99255.20
2023-08-17T19:29:29.474Z,99259.80
2023-08-17T19:31:56.129Z,99261.00
2023-08-17T19:34:22.688Z,99259.20
2023-08-17T19:36:49.227Z,99264.60
2023-08-17T19:39:15.717Z,99264.20
2023-08-17T19:41:44.437Z,99263.60
2023-08-17T19:44:11.026Z,99265.20
2023-08-17T19:46:37.717Z,99262.80
2023-08-17T19:51:31.251Z,99267.40
2023-08-17T19:53:57.773Z,99266.80
2023-08-17T19:56:24.356Z,99266.60
2023-08-17T19:58:50.759Z,99267.60
2023-08-17T20:01:18.497Z,99264.40
2023-08-17T20:03:49.516Z,99263.20
2023-08-17T20:06:16.351Z,99264.60
2023-08-17T20:08:43.764Z,99261.20
2023-08-17T20:11:12.619Z,99260.80
2023-08-17T20:13:39.261Z,99268.00
2023-08-17T20:16:06.625Z,99268.60
2023-08-17T20:18:33.251Z,99266.20
2023-08-17T20:21:03.165Z,99268.00
2023-08-17T20:23:29.622Z,99266.60
2023-08-17T20:25:57.566Z,99261.40
2023-08-17T20:28:24.610Z,99260.60
2023-08-17T20:31:00.910Z,99267.40
2023-08-17T20:33:28.057Z,99267.20
2023-08-17T20:35:55.982Z,99267.00
2023-08-17T20:38:24.096Z,99265.40
2023-08-17T20:40:51.736Z,99257.60
2023-08-17T20:43:19.288Z,99259.60
2023-08-17T20:45:46.472Z,99260.40
2023-08-17T20:48:13.298Z,99255.80
2023-08-17T20:50:41.424Z,99261.80
2023-08-17T20:53:09.055Z,99258.60
2023-08-17T20:55:40.120Z,99263.80
2023-08-17T20:58:07.574Z,99259.80
2023-08-17T21:00:36.804Z,99263.60
2023-08-17T21:05:31.345Z,99267.80
2023-08-17T21:07:58.352Z,99273.00
2023-08-17T21:10:25.396Z,99271.80
2023-08-17T21:12:52.172Z,99273.80
2023-08-17T21:15:18.715Z,99269.00
2023-08-17T21:17:46.519Z,99267.80
2023-08-17T21:20:13.816Z,99269.00
2023-08-17T21:22:47.138Z,99270.20
2023-08-17T21:25:13.637Z,99266.80
2023-08-17T21:27:40.272Z,99267.00
2023-08-17T21:30:07.983Z,99267.60
2023-08-17T21:32:34.688Z,99271.60
2023-08-17T21:35:01.220Z,99271.20
2023-08-17T21:37:29.507Z,99273.40
2023-08-17T21:39:56.445Z,99277.60
2023-08-17T21:42:23.103Z,99284.80
2023-08-17T21:44:50.842Z,99285.00
2023-08-17T21:47:17.523Z,99289.20
2023-08-17T21:49:47.965Z,99286.40
2023-08-17T21:52:16.588Z,99286.40
2023-08-17T21:54:43.186Z,99291.40
2023-08-17T21:57:09.850Z,99293.00
2023-08-17T21:59:36.349Z,99292.80
2023-08-17T22:02:03.992Z,99290.40
2023-08-17T22:04:33.438Z,99294.80
2023-08-17T22:07:03.027Z,99303.00
2023-08-17T22:09:30.737Z,99296.00
2023-08-17T22:11:57.199Z,99295.60
2023-08-17T22:14:23.746Z,99292.40
2023-08-17T22:16:50.468Z,99292.00
2023-08-17T22:19:17.279Z,99291.00
2023-08-17T22:21:43.781Z,99291.20
2023-08-17T22:24:10.230Z,99289.60
2023-08-17T22:26:36.718Z,99275.00
2023-08-17T22:29:04.482Z,99272.40
2023-08-17T22:31:32.273Z,99271.40
2023-08-17T22:33:58.685Z,99275.60
2023-08-17T22:36:25.271Z,99280.80
2023-08-17T22:38:51.766Z,99281.60
2023-08-17T22:41:18.188Z,99281.20
2023-08-17T22:43:44.854Z,99283.20
2023-08-17T22:46:11.428Z,99289.00
2023-08-17T22:48:38.027Z,99287.40
2023-08-17T22:51:04.527Z,99288.00
2023-08-17T22:53:30.924Z,99288.20
2023-08-17T22:55:57.352Z,99285.00
2023-08-17T22:58:23.807Z,99278.60
2023-08-17T23:00:50.353Z,99275.00
2023-08-17T23:03:17.397Z,99273.20
2023-08-17T23:05:44.692Z,99264.40
2023-08-17T23:08:11.182Z,99260.20
2023-08-17T23:10:37.933Z,99255.20
2023-08-17T23:13:04.727Z,99246.20
2023-08-17T23:15:31.135Z,99254.40
2023-08-17T23:17:57.751Z,99255.00
2023-08-17T23:20:24.334Z,99244.80
2023-08-17T23:22:50.746Z,99247.00
2023-08-17T23:25:17.282Z,99252.00
2023-08-17T23:27:47.943Z,99257.00
2023-08-17T23:30:14.434Z,99269.80
2023-08-17T23:32:40.852Z,99275.00
2023-08-17T23:35:08.301Z,99274.60
2023-08-17T23:37:34.717Z,99270.80
2023-08-17T23:40:07.184Z,99271.00
2023-08-17T23:42:33.696Z,99275.60
2023-08-17T23:45:00.152Z,99313.80
2023-08-17T23:47:26.893Z,99341.40
2023-08-17T23:49:53.975Z,99334.40
2023-08-17T23:52:20.408Z,99331.00
2023-08-17T23:54:46.809Z,99328.40
2023-08-17T23:57:13.283Z,99331.40
2023-08-17T23:59:39.673Z,99336.00
